createdAt,value
2019-06-15T00:01:00.295Z,19.60
2019-06-15T00:03:40.730Z,20.10
2019-06-15T00:06:21.506Z,20.30
2019-06-15T00:09:02.574Z,20.20
2019-06-15T00:11:43.457Z,20.20
2019-06-15T00:14:24.389Z,20.10
2019-06-15T00:17:05.084Z,19.90
2019-06-15T00:19:45.944Z,19.90
2019-06-15T00:22:26.790Z,19.70
2019-06-15T00:25:07.637Z,19.70
2019-06-15T00:27:48.044Z,19.70
2019-06-15T00:33:31.042Z,19.70
2019-06-15T00:36:12.035Z,19.80
2019-06-15T00:38:52.653Z,19.80
2019-06-15T00:41:33.456Z,19.80
2019-06-15T00:44:14.609Z,19.80
2019-06-15T00:46:55.581Z,19.70
2019-06-15T00:49:36.610Z,19.80
2019-06-15T00:52:17.495Z,19.70
2019-06-15T00:54:58.297Z,19.60
2019-06-15T00:57:39.177Z,19.60
2019-06-15T01:00:19.657Z,19.60
2019-06-15T01:03:00.520Z,19.50
2019-06-15T01:05:41.514Z,19.50
2019-06-15T01:08:22.833Z,19.40
2019-06-15T01:11:03.988Z,19.40
2019-06-15T01:13:45.029Z,19.50
2019-06-15T01:16:25.849Z,19.70
2019-06-15T01:19:06.834Z,19.80
2019-06-15T01:21:47.846Z,20.10
2019-06-15T01:24:28.723Z,20.90
2019-06-15T01:27:09.931Z,20.70
2019-06-15T01:29:50.813Z,20.10
2019-06-15T01:32:31.702Z,19.60
2019-06-15T01:35:12.545Z,19.30
2019-06-15T01:37:53.520Z,19.10
2019-06-15T01:40:34.546Z,19.10
2019-06-15T01:43:15.393Z,19.00
2019-06-15T01:45:55.825Z,19.10
2019-06-15T01:48:36.749Z,19.10
2019-06-15T01:51:17.877Z,19.20
2019-06-15T01:53:58.835Z,19.30
2019-06-15T01:56:39.763Z,19.40
2019-06-15T01:59:20.945Z,19.40
2019-06-15T02:02:01.753Z,19.40
2019-06-15T02:04:42.557Z,19.40
2019-06-15T02:07:23.358Z,19.30
2019-06-15T02:10:03.838Z,19.20
2019-06-15T02:13:02.525Z,19.10
2019-06-15T02:15:33.476Z,19.10
2019-06-15T02:18:14.419Z,19.10
2019-06-15T02:20:55.439Z,19.10
2019-06-15T02:23:36.310Z,19.10
2019-06-15T02:26:17.122Z,19.00
2019-06-15T02:28:58.310Z,18.90
2019-06-15T02:34:40.968Z,18.80
2019-06-15T02:37:21.998Z,18.80
2019-06-15T02:40:03.026Z,18.80
2019-06-15T02:42:43.933Z,18.80
2019-06-15T02:45:24.944Z,18.80
2019-06-15T02:48:05.860Z,18.80
2019-06-15T02:50:46.847Z,18.80
2019-06-15T02:53:27.973Z,18.70
2019-06-15T02:56:08.960Z,18.70
2019-06-15T02:58:49.936Z,18.60
2019-06-15T03:01:31.186Z,18.50
2019-06-15T03:04:00.235Z,18.60
2019-06-15T03:06:48.394Z,18.60
2019-06-15T03:09:36.579Z,18.60
2019-06-15T03:12:17.132Z,18.50
2019-06-15T03:14:57.814Z,18.50
2019-06-15T03:17:38.804Z,18.40
2019-06-15T03:20:19.962Z,18.50
2019-06-15T03:23:01.076Z,18.50
2019-06-15T03:25:41.961Z,18.50
2019-06-15T03:28:22.881Z,18.40
2019-06-15T03:31:03.794Z,18.40
2019-06-15T03:33:44.878Z,18.40
2019-06-15T03:36:25.886Z,18.40
2019-06-15T03:39:06.706Z,18.40
2019-06-15T03:41:47.917Z,18.40
2019-06-15T03:44:28.702Z,18.30
2019-06-15T03:47:09.598Z,18.30
2019-06-15T03:49:50.548Z,18.30
2019-06-15T03:52:31.493Z,18.20
2019-06-15T03:55:12.205Z,18.10
2019-06-15T03:57:53.024Z,18.00
2019-06-15T04:00:33.749Z,18.00
2019-06-15T04:03:14.628Z,17.90
2019-06-15T04:05:55.718Z,17.90
2019-06-15T04:08:36.174Z,17.90
2019-06-15T04:11:17.026Z,18.00
2019-06-15T04:13:59.664Z,18.00
2019-06-15T04:17:14.674Z,18.10
2019-06-15T04:19:36.715Z,18.10
2019-06-15T04:22:17.797Z,18.00
2019-06-15T04:24:58.789Z,17.90
2019-06-15T04:27:39.622Z,17.80
2019-06-15T04:30:20.546Z,17.80
2019-06-15T04:33:01.425Z,17.80
2019-06-15T04:35:42.705Z,17.90
2019-06-15T04:38:23.133Z,17.90
2019-06-15T04:41:03.897Z,17.90
2019-06-15T04:43:45.143Z,17.90
2019-06-15T04:46:25.523Z,17.90
2019-06-15T04:49:06.481Z,17.90
2019-06-15T04:51:47.317Z,17.90
2019-06-15T04:54:28.115Z,17.90
2019-06-15T04:57:09.081Z,17.90
2019-06-15T04:59:49.887Z,17.90
2019-06-15T05:02:30.812Z,17.90
2019-06-15T05:05:11.214Z,17.80
2019-06-15T05:07:52.243Z,17.80
2019-06-15T05:10:32.742Z,17.80
2019-06-15T05:13:13.183Z,17.90
2019-06-15T05:15:54.028Z,18.00
2019-06-15T05:18:34.582Z,18.00
2019-06-15T05:21:16.126Z,18.10
2019-06-15T05:23:57.341Z,18.20
2019-06-15T05:26:38.309Z,18.20
2019-06-15T05:29:19.446Z,18.30
2019-06-15T05:32:00.514Z,18.30
2019-06-15T05:34:41.614Z,18.40
2019-06-15T05:37:22.606Z,18.40
2019-06-15T05:40:04.257Z,18.50
2019-06-15T05:42:47.056Z,18.50
2019-06-15T05:45:28.049Z,18.60
2019-06-15T05:48:09.016Z,18.60
2019-06-15T05:50:49.806Z,18.60
2019-06-15T05:53:30.807Z,18.70
2019-06-15T05:56:12.694Z,18.70
2019-06-15T05:58:53.432Z,18.80
2019-06-15T06:01:35.020Z,18.90
2019-06-15T06:04:16.275Z,19.10
2019-06-15T06:06:57.371Z,19.30
2019-06-15T06:09:38.276Z,19.50
2019-06-15T06:12:19.623Z,19.50
2019-06-15T06:15:01.123Z,19.50
2019-06-15T06:17:42.481Z,19.50
2019-06-15T06:20:22.989Z,19.60
2019-06-15T06:23:04.082Z,19.90
2019-06-15T06:25:45.350Z,20.10
2019-06-15T06:28:26.085Z,20.30
2019-06-15T06:31:07.121Z,20.60
2019-06-15T06:33:48.171Z,21.00
2019-06-15T06:36:29.320Z,21.10
2019-06-15T06:39:10.199Z,21.30
2019-06-15T06:41:51.206Z,21.40
2019-06-15T06:44:32.164Z,21.40
2019-06-15T06:47:12.979Z,21.30
2019-06-15T06:49:53.767Z,21.20
2019-06-15T06:52:34.655Z,21.10
2019-06-15T06:55:15.705Z,21.10
2019-06-15T06:57:57.353Z,21.00
2019-06-15T07:00:38.741Z,21.00
2019-06-15T07:03:19.705Z,21.00
2019-06-15T07:06:00.829Z,21.10
2019-06-15T07:08:43.657Z,21.10
2019-06-15T07:11:24.615Z,21.10
2019-06-15T07:14:04.957Z,21.10
2019-06-15T07:16:45.685Z,21.00
2019-06-15T07:19:26.646Z,20.90
2019-06-15T07:22:07.883Z,20.90
2019-06-15T07:24:48.353Z,20.80
2019-06-15T07:27:29.753Z,20.80
2019-06-15T07:30:10.675Z,20.80
2019-06-15T07:32:52.201Z,20.80
2019-06-15T07:35:33.031Z,20.90
2019-06-15T07:38:14.153Z,20.90
2019-06-15T07:40:55.059Z,21.00
2019-06-15T07:43:35.916Z,21.10
2019-06-15T07:46:17.041Z,21.10
2019-06-15T07:48:58.301Z,21.20
2019-06-15T07:51:39.446Z,21.40
2019-06-15T07:54:20.346Z,21.60
2019-06-15T07:57:01.662Z,21.80
2019-06-15T07:59:42.909Z,21.80
2019-06-15T08:02:24.170Z,21.80
2019-06-15T08:05:04.761Z,21.60
2019-06-15T08:07:45.656Z,21.50
2019-06-15T08:10:26.648Z,21.50
2019-06-15T08:13:07.458Z,21.50
2019-06-15T08:15:48.500Z,21.40
2019-06-15T08:18:29.266Z,21.30
2019-06-15T08:21:10.109Z,21.20
2019-06-15T08:23:50.720Z,21.10
2019-06-15T08:26:31.778Z,21.10
2019-06-15T08:29:12.777Z,21.10
2019-06-15T08:31:53.688Z,21.00
2019-06-15T08:34:34.548Z,21.00
2019-06-15T08:37:15.501Z,20.90
2019-06-15T08:39:56.492Z,20.70
2019-06-15T08:42:37.637Z,20.70
2019-06-15T08:45:18.581Z,20.70
2019-06-15T08:47:59.537Z,20.70
2019-06-15T08:50:40.619Z,20.70
2019-06-15T08:53:21.714Z,20.80
2019-06-15T08:56:02.646Z,21.00
2019-06-15T08:58:55.035Z,21.20
2019-06-15T09:01:25.613Z,21.40
2019-06-15T09:04:06.720Z,21.50
2019-06-15T09:06:47.596Z,21.50
2019-06-15T09:09:28.613Z,21.40
2019-06-15T09:12:09.593Z,21.50
2019-06-15T09:14:50.475Z,21.30
2019-06-15T09:17:31.590Z,21.20
2019-06-15T09:20:12.562Z,21.40
2019-06-15T09:22:53.460Z,21.80
2019-06-15T09:25:36.769Z,21.70
2019-06-15T09:28:17.773Z,21.50
2019-06-15T09:30:58.873Z,21.50
2019-06-15T09:33:40.591Z,21.70
2019-06-15T09:36:21.570Z,21.80
2019-06-15T09:39:02.336Z,21.90
